TimeEST,TemperatureF,Dew PointF,Humidity,Sea Level PressureIn,VisibilityMPH,Wind Direction,Wind SpeedMPH,Gust SpeedMPH,PrecipitationIn,Events,Conditions,WindDirDegrees,DateUTC
12:52 AM,44.1,33.1,65,30.35,10.0,West,10.4,16.1,N/A,,Overcast,260,2013-11-22 05:52:00
1:52 AM,44.1,34.0,68,30.34,10.0,West,5.8,-,N/A,,Overcast,270,2013-11-22 06:52:00
2:52 AM,44.1,35.1,71,30.33,10.0,West,4.6,-,N/A,,Overcast,270,2013-11-22 07:52:00
3:52 AM,43.0,35.1,74,30.31,10.0,NW,3.5,-,N/A,,Overcast,310,2013-11-22 08:52:00
4:16 AM,43.0,35.1,74,30.28,10.0,Calm,Calm,-,N/A,,Mostly Cloudy,0,2013-11-22 09:16:00
4:23 AM,43.0,35.1,74,30.28,10.0,Calm,Calm,-,N/A,,Mostly Cloudy,0,2013-11-22 09:23:00
4:52 AM,42.1,35.1,76,30.28,10.0,Calm,Calm,-,N/A,,Overcast,0,2013-11-22 09:52:00
5:52 AM,42.1,39.0,89,30.26,10.0,Calm,Calm,-,0.00,Rain,Light Rain,0,2013-11-22 10:52:00
6:27 AM,41.0,37.9,89,30.26,10.0,Calm,Calm,-,0.01,Rain,Light Rain,0,2013-11-22 11:27:00
6:52 AM,41.0,39.0,93,30.26,8.0,Calm,Calm,-,0.01,Rain,Light Rain,0,2013-11-22 11:52:00
7:03 AM,41.0,39.0,93,30.23,8.0,Calm,Calm,-,0.00,Rain,Light Rain,0,2013-11-22 12:03:00
7:52 AM,42.1,39.0,89,30.23,6.0,Calm,Calm,-,0.01,Rain,Light Rain,0,2013-11-22 12:52:00
8:52 AM,42.1,39.9,92,30.20,5.0,Calm,Calm,-,0.04,Rain,Light Rain,0,2013-11-22 13:52:00
9:36 AM,43.0,39.9,89,30.16,5.0,Calm,Calm,-,0.01,Rain,Light Rain,0,2013-11-22 14:36:00
9:52 AM,43.0,41.0,93,30.17,2.5,Calm,Calm,-,0.02,Rain,Light Rain,0,2013-11-22 14:52:00
9:59 AM,43.0,41.0,93,30.15,3.0,Calm,Calm,-,0.01,Rain,Light Rain,0,2013-11-22 14:59:00
10:33 AM,43.0,41.0,93,30.14,2.5,Calm,Calm,-,0.02,Rain,Light Rain,0,2013-11-22 15:33:00
10:52 AM,43.0,41.0,93,30.13,2.5,Calm,Calm,-,0.03,Rain,Light Rain,0,2013-11-22 15:52:00
11:01 AM,43.0,41.0,93,30.11,2.5,Calm,Calm,-,0.00,,Overcast,0,2013-11-22 16:01:00
11:13 AM,44.1,42.1,93,30.10,2.5,Calm,Calm,-,0.00,,Overcast,0,2013-11-22 16:13:00
11:20 AM,44.1,42.1,93,30.10,3.0,Calm,Calm,-,0.00,,Overcast,0,2013-11-22 16:20:00
11:52 AM,44.1,42.1,93,30.08,6.0,Calm,Calm,-,0.00,Rain,Light Rain,0,2013-11-22 16:52:00
12:07 PM,44.1,41.0,89,30.07,7.0,Calm,Calm,-,0.00,,Overcast,0,2013-11-22 17:07:00
12:52 PM,45.0,42.1,90,30.05,6.0,Calm,Calm,-,0.00,,Overcast,0,2013-11-22 17:52:00
1:52 PM,45.0,42.1,90,30.03,5.0,Calm,Calm,-,N/A,,Overcast,0,2013-11-22 18:52:00
2:52 PM,45.0,42.1,90,30.01,4.0,Calm,Calm,-,N/A,,Overcast,0,2013-11-22 19:52:00
3:52 PM,45.0,43.0,93,29.99,3.0,Calm,Calm,-,N/A,,Overcast,0,2013-11-22 20:52:00
4:16 PM,45.0,43.0,93,29.97,2.0,Calm,Calm,-,N/A,,Overcast,0,2013-11-22 21:16:00
4:30 PM,45.0,42.1,90,29.98,4.0,Calm,Calm,-,N/A,,Overcast,0,2013-11-22 21:30:00
4:52 PM,44.1,43.0,96,29.98,4.0,Calm,Calm,-,N/A,,Overcast,0,2013-11-22 21:52:00
5:27 PM,44.1,43.0,96,29.95,2.5,Calm,Calm,-,N/A,,Overcast,0,2013-11-22 22:27:00
5:52 PM,44.1,43.0,96,29.96,2.0,Calm,Calm,-,N/A,,Overcast,0,2013-11-22 22:52:00
6:04 PM,44.1,42.1,93,29.94,3.0,Calm,Calm,-,N/A,,Overcast,0,2013-11-22 23:04:00
6:52 PM,44.1,42.1,93,29.95,4.0,Calm,Calm,-,N/A,,Overcast,0,2013-11-22 23:52:00
7:42 PM,44.1,42.1,93,29.92,1.8,SSE,3.5,-,N/A,,Overcast,150,2013-11-23 00:42:00
7:46 PM,44.6,42.8,93,29.91,0.8,SSE,3.5,-,N/A,,Overcast,150,2013-11-23 00:46:00
7:52 PM,44.1,42.1,93,29.92,0.5,SE,3.5,-,N/A,Fog,Fog,130,2013-11-23 00:52:00
8:22 PM,44.1,43.0,96,29.90,1.0,South,3.5,-,N/A,,Mist,180,2013-11-23 01:22:00
8:30 PM,44.1,43.0,96,29.90,0.8,Calm,Calm,-,N/A,,Mist,0,2013-11-23 01:30:00
8:52 PM,44.1,42.1,93,29.89,0.8,SE,4.6,-,N/A,,Overcast,130,2013-11-23 01:52:00
8:55 PM,44.1,43.0,96,29.88,1.2,Calm,Calm,-,N/A,,Overcast,0,2013-11-23 01:55:00
8:59 PM,44.1,43.0,96,29.88,2.0,Calm,Calm,-,N/A,,Overcast,0,2013-11-23 01:59:00
9:16 PM,44.1,42.1,93,29.87,1.2,Calm,Calm,-,N/A,,Overcast,0,2013-11-23 02:16:00
9:31 PM,44.1,43.0,96,29.86,3.0,Calm,Calm,-,N/A,,Overcast,0,2013-11-23 02:31:00
9:52 PM,44.1,42.1,93,29.87,3.0,Calm,Calm,-,N/A,,Overcast,0,2013-11-23 02:52:00
10:01 PM,44.1,43.0,96,29.86,2.5,Calm,Calm,-,N/A,,Overcast,0,2013-11-23 03:01:00
10:16 PM,44.1,43.0,96,29.86,4.0,Calm,Calm,-,N/A,,Overcast,0,2013-11-23 03:16:00
10:52 PM,44.1,43.0,96,29.85,4.0,Calm,Calm,-,N/A,,Overcast,0,2013-11-23 03:52:00
11:20 PM,48.0,44.1,86,29.83,10.0,SW,4.6,-,N/A,,Overcast,230,2013-11-23 04:20:00
11:52 PM,48.9,44.1,83,29.82,10.0,SW,4.6,-,N/A,,Overcast,220,2013-11-23 04:52:00